sensor_id;sensor_type;location;lat;lon;timestamp;temperature;humidity
49224;DHT22;35050;51.316;5.994;2022-08-24T00:01:02;22.70;99.90
49224;DHT22;35050;51.316;5.994;2022-08-24T00:03:28;22.70;99.90
49224;DHT22;35050;51.316;5.994;2022-08-24T00:05:54;22.70;99.90
49224;DHT22;35050;51.316;5.994;2022-08-24T00:08:20;22.70;99.90
49224;DHT22;35050;51.316;5.994;2022-08-24T00:10:51;22.80;99.90
49224;DHT22;35050;51.316;5.994;2022-08-24T00:13:17;22.50;99.90
49224;DHT22;35050;51.316;5.994;2022-08-24T00:15:43;22.40;99.90
49224;DHT22;35050;51.316;5.994;2022-08-24T00:18:12;22.40;99.90
49224;DHT22;35050;51.316;5.994;2022-08-24T00:20:39;22.50;99.90
49224;DHT22;35050;51.316;5.994;2022-08-24T00:23:06;22.50;99.90
49224;DHT22;35050;51.316;5.994;2022-08-24T00:25:32;22.50;99.90
49224;DHT22;35050;51.316;5.994;2022-08-24T00:27:58;22.50;99.90
49224;DHT22;35050;51.316;5.994;2022-08-24T00:30:24;22.30;99.90
49224;DHT22;35050;51.316;5.994;2022-08-24T00:32:51;22.20;99.90
49224;DHT22;35050;51.316;5.994;2022-08-24T00:35:20;22.20;99.90
49224;DHT22;35050;51.316;5.994;2022-08-24T00:37:54;22.30;99.90
49224;DHT22;35050;51.316;5.994;2022-08-24T00:40:35;22.40;99.90
49224;DHT22;35050;51.316;5.994;2022-08-24T00:43:03;22.30;99.90
49224;DHT22;35050;51.316;5.994;2022-08-24T00:45:34;22.20;99.90
49224;DHT22;35050;51.316;5.994;2022-08-24T00:48:07;22.10;99.90
49224;DHT22;35050;51.316;5.994;2022-08-24T00:50:50;22.10;99.90
49224;DHT22;35050;51.316;5.994;2022-08-24T00:53:35;22.20;99.90
49224;DHT22;35050;51.316;5.994;2022-08-24T00:56:05;22.10;99.90
49224;DHT22;35050;51.316;5.994;2022-08-24T00:58:44;22.10;99.90
49224;DHT22;35050;51.316;5.994;2022-08-24T01:01:12;22.20;99.90
49224;DHT22;35050;51.316;5.994;2022-08-24T01:03:41;22.30;99.90
49224;DHT22;35050;51.316;5.994;2022-08-24T01:06:08;22.00;99.90
49224;DHT22;35050;51.316;5.994;2022-08-24T01:08:34;21.90;99.90
49224;DHT22;35050;51.316;5.994;2022-08-24T01:11:10;21.90;99.90
49224;DHT22;35050;51.316;5.994;2022-08-24T01:13:37;21.90;99.90
49224;DHT22;35050;51.316;5.994;2022-08-24T01:16:07;21.90;99.90
49224;DHT22;35050;51.316;5.994;2022-08-24T01:18:36;21.90;99.90
49224;DHT22;35050;51.316;5.994;2022-08-24T01:21:33;21.90;99.90
49224;DHT22;35050;51.316;5.994;2022-08-24T01:24:04;22.00;99.90
49224;DHT22;35050;51.316;5.994;2022-08-24T01:26:39;22.00;99.90
49224;DHT22;35050;51.316;5.994;2022-08-24T01:29:10;21.90;99.90
49224;DHT22;35050;51.316;5.994;2022-08-24T01:31:37;21.80;99.90
49224;DHT22;35050;51.316;5.994;2022-08-24T01:34:04;21.80;99.90
49224;DHT22;35050;51.316;5.994;2022-08-24T01:36:40;21.80;99.90
49224;DHT22;35050;51.316;5.994;2022-08-24T01:39:21;21.80;99.90
49224;DHT22;35050;51.316;5.994;2022-08-24T01:41:48;21.80;99.90
49224;DHT22;35050;51.316;5.994;2022-08-24T01:44:17;21.80;99.90
49224;DHT22;35050;51.316;5.994;2022-08-24T01:46:51;21.70;99.90
49224;DHT22;35050;51.316;5.994;2022-08-24T01:49:18;21.70;99.90
49224;DHT22;35050;51.316;5.994;2022-08-24T01:51:45;21.60;99.90
49224;DHT22;35050;51.316;5.994;2022-08-24T01:54:12;21.40;99.90
49224;DHT22;35050;51.316;5.994;2022-08-24T01:56:38;21.50;99.90
49224;DHT22;35050;51.316;5.994;2022-08-24T01:59:05;21.50;99.90
49224;DHT22;35050;51.316;5.994;2022-08-24T02:01:37;21.40;99.90
49224;DHT22;35050;51.316;5.994;2022-08-24T02:04:06;21.40;99.90
49224;DHT22;35050;51.316;5.994;2022-08-24T02:06:34;21.50;99.90
49224;DHT22;35050;51.316;5.994;2022-08-24T02:09:00;21.40;99.90
49224;DHT22;35050;51.316;5.994;2022-08-24T02:11:28;21.30;99.90
49224;DHT22;35050;51.316;5.994;2022-08-24T02:13:54;21.20;99.90
49224;DHT22;35050;51.316;5.994;2022-08-24T02:16:20;21.20;99.90
49224;DHT22;35050;51.316;5.994;2022-08-24T02:18:46;21.30;99.90
49224;DHT22;35050;51.316;5.994;2022-08-24T02:21:12;21.20;99.90
49224;DHT22;35050;51.316;5.994;2022-08-24T02:23:40;21.10;99.90
49224;DHT22;35050;51.316;5.994;2022-08-24T02:26:08;21.10;99.90
49224;DHT22;35050;51.316;5.994;2022-08-24T02:28:35;21.10;99.90
49224;DHT22;35050;51.316;5.994;2022-08-24T02:31:02;21.10;99.90
49224;DHT22;35050;51.316;5.994;2022-08-24T02:33:33;21.10;99.90
49224;DHT22;35050;51.316;5.994;2022-08-24T02:36:00;21.10;99.90
49224;DHT22;35050;51.316;5.994;2022-08-24T02:38:28;21.10;99.90
49224;DHT22;35050;51.316;5.994;2022-08-24T02:40:53;21.00;99.90
49224;DHT22;35050;51.316;5.994;2022-08-24T02:43:21;20.90;99.90
49224;DHT22;35050;51.316;5.994;2022-08-24T02:45:47;20.90;99.90
49224;DHT22;35050;51.316;5.994;2022-08-24T02:48:13;21.00;99.90
49224;DHT22;35050;51.316;5.994;2022-08-24T02:50:45;21.00;99.90
49224;DHT22;35050;51.316;5.994;2022-08-24T02:53:13;20.90;99.90
49224;DHT22;35050;51.316;5.994;2022-08-24T02:55:41;20.80;99.90
49224;DHT22;35050;51.316;5.994;2022-08-24T02:58:09;20.70;99.90
49224;DHT22;35050;51.316;5.994;2022-08-24T03:00:35;20.80;99.90
49224;DHT22;35050;51.316;5.994;2022-08-24T03:03:04;20.70;99.90
49224;DHT22;35050;51.316;5.994;2022-08-24T03:05:31;20.80;99.90
49224;DHT22;35050;51.316;5.994;2022-08-24T03:07:58;20.70;99.90
49224;DHT22;35050;51.316;5.994;2022-08-24T03:10:24;20.70;99.90
49224;DHT22;35050;51.316;5.994;2022-08-24T03:12:51;20.50;99.90
49224;DHT22;35050;51.316;5.994;2022-08-24T03:15:18;20.60;99.90
49224;DHT22;35050;51.316;5.994;2022-08-24T03:17:47;20.60;99.90
49224;DHT22;35050;51.316;5.994;2022-08-24T03:20:15;20.60;99.90
49224;DHT22;35050;51.316;5.994;2022-08-24T03:22:42;20.60;99.90
49224;DHT22;35050;51.316;5.994;2022-08-24T03:25:09;20.60;99.90
49224;DHT22;35050;51.316;5.994;2022-08-24T03:27:36;20.60;99.90
49224;DHT22;35050;51.316;5.994;2022-08-24T03:30:05;20.60;99.90
49224;DHT22;35050;51.316;5.994;2022-08-24T03:32:31;20.60;99.90
49224;DHT22;35050;51.316;5.994;2022-08-24T03:34:58;20.50;99.90
49224;DHT22;35050;51.316;5.994;2022-08-24T03:37:24;20.60;99.90
49224;DHT22;35050;51.316;5.994;2022-08-24T03:39:50;20.50;99.90
49224;DHT22;35050;51.316;5.994;2022-08-24T03:42:17;20.50;99.90
49224;DHT22;35050;51.316;5.994;2022-08-24T03:44:43;20.50;99.90
49224;DHT22;35050;51.316;5.994;2022-08-24T03:47:08;20.50;99.90
49224;DHT22;35050;51.316;5.994;2022-08-24T03:49:36;20.40;99.90
49224;DHT22;35050;51.316;5.994;2022-08-24T03:52:02;20.30;99.90
49224;DHT22;35050;51.316;5.994;2022-08-24T03:54:28;20.40;99.90
49224;DHT22;35050;51.316;5.994;2022-08-24T03:56:55;20.50;99.90
49224;DHT22;35050;51.316;5.994;2022-08-24T03:59:23;20.40;99.90
49224;DHT22;35050;51.316;5.994;2022-08-24T04:01:49;20.40;99.90
49224;DHT22;35050;51.316;5.994;2022-08-24T04:04:16;20.40;99.90
49224;DHT22;35050;51.316;5.994;2022-08-24T04:06:42;20.40;99.90
49224;DHT22;35050;51.316;5.994;2022-08-24T04:09:11;20.30;99.90
49224;DHT22;35050;51.316;5.994;2022-08-24T04:11:37;20.30;99.90
49224;DHT22;35050;51.316;5.994;2022-08-24T04:14:03;20.30;99.90
49224;DHT22;35050;51.316;5.994;2022-08-24T04:16:28;20.20;99.90
49224;DHT22;35050;51.316;5.994;2022-08-24T04:18:57;20.20;99.90
49224;DHT22;35050;51.316;5.994;2022-08-24T04:21:30;20.30;99.90
49224;DHT22;35050;51.316;5.994;2022-08-24T04:23:57;20.20;99.90
49224;DHT22;35050;51.316;5.994;2022-08-24T04:26:25;20.20;99.90
49224;DHT22;35050;51.316;5.994;2022-08-24T04:28:51;20.20;99.90
49224;DHT22;35050;51.316;5.994;2022-08-24T04:31:26;20.10;99.90
49224;DHT22;35050;51.316;5.994;2022-08-24T04:33:53;20.20;99.90
49224;DHT22;35050;51.316;5.994;2022-08-24T04:36:20;20.10;99.90
49224;DHT22;35050;51.316;5.994;2022-08-24T04:38:47;20.20;99.90
49224;DHT22;35050;51.316;5.994;2022-08-24T04:41:16;20.10;99.90
49224;DHT22;35050;51.316;5.994;2022-08-24T04:43:45;19.90;99.90
49224;DHT22;35050;51.316;5.994;2022-08-24T04:46:14;19.90;99.90
49224;DHT22;35050;51.316;5.994;2022-08-24T04:48:42;19.80;99.90
49224;DHT22;35050;51.316;5.994;2022-08-24T04:51:10;19.90;99.90
49224;DHT22;35050;51.316;5.994;2022-08-24T04:53:36;19.90;99.90
49224;DHT22;35050;51.316;5.994;2022-08-24T04:56:03;20.00;99.90
49224;DHT22;35050;51.316;5.994;2022-08-24T04:58:33;19.90;99.90
49224;DHT22;35050;51.316;5.994;2022-08-24T05:00:59;19.90;99.90
49224;DHT22;35050;51.316;5.994;2022-08-24T05:03:24;19.90;99.90
49224;DHT22;35050;51.316;5.994;2022-08-24T05:05:50;19.90;99.90
49224;DHT22;35050;51.316;5.994;2022-08-24T05:08:17;19.80;99.90
49224;DHT22;35050;51.316;5.994;2022-08-24T05:10:46;20.00;99.90
49224;DHT22;35050;51.316;5.994;2022-08-24T05:13:12;20.00;99.90
49224;DHT22;35050;51.316;5.994;2022-08-24T05:15:42;20.00;99.90
49224;DHT22;35050;51.316;5.994;2022-08-24T05:18:11;20.10;99.90
49224;DHT22;35050;51.316;5.994;2022-08-24T05:20:45;20.10;99.90
49224;DHT22;35050;51.316;5.994;2022-08-24T05:23:12;20.20;99.90
49224;DHT22;35050;51.316;5.994;2022-08-24T05:25:39;20.10;99.90
49224;DHT22;35050;51.316;5.994;2022-08-24T05:28:05;20.20;99.90
49224;DHT22;35050;51.316;5.994;2022-08-24T05:30:33;20.30;99.90
49224;DHT22;35050;51.316;5.994;2022-08-24T05:32:58;20.30;99.90
49224;DHT22;35050;51.316;5.994;2022-08-24T05:35:25;20.30;99.90
49224;DHT22;35050;51.316;5.994;2022-08-24T05:37:51;20.30;99.90
49224;DHT22;35050;51.316;5.994;2022-08-24T05:40:18;20.20;99.90
49224;DHT22;35050;51.316;5.994;2022-08-24T05:42:44;20.70;99.90
49224;DHT22;35050;51.316;5.994;2022-08-24T05:45:10;20.90;99.90
49224;DHT22;35050;51.316;5.994;2022-08-24T05:47:37;21.00;99.90
49224;DHT22;35050;51.316;5.994;2022-08-24T05:50:03;21.00;99.90
49224;DHT22;35050;51.316;5.994;2022-08-24T05:52:31;21.30;99.90
49224;DHT22;35050;51.316;5.994;2022-08-24T05:55:00;20.90;99.90
49224;DHT22;35050;51.316;5.994;2022-08-24T05:57:31;20.70;99.90
49224;DHT22;35050;51.316;5.994;2022-08-24T05:59:57;20.60;99.90
49224;DHT22;35050;51.316;5.994;2022-08-24T06:02:23;20.70;99.90
49224;DHT22;35050;51.316;5.994;2022-08-24T06:04:48;20.80;99.90
49224;DHT22;35050;51.316;5.994;2022-08-24T06:07:14;20.80;99.90
49224;DHT22;35050;51.316;5.994;2022-08-24T06:09:41;20.90;99.90
49224;DHT22;35050;51.316;5.994;2022-08-24T06:12:09;21.00;99.90
49224;DHT22;35050;51.316;5.994;2022-08-24T06:14:36;21.00;99.90
49224;DHT22;35050;51.316;5.994;2022-08-24T06:17:05;21.10;99.90
49224;DHT22;35050;51.316;5.994;2022-08-24T06:19:32;21.20;99.90
49224;DHT22;35050;51.316;5.994;2022-08-24T06:21:59;21.30;99.90
49224;DHT22;35050;51.316;5.994;2022-08-24T06:24:26;21.30;99.90
49224;DHT22;35050;51.316;5.994;2022-08-24T06:27:12;21.40;99.90
49224;DHT22;35050;51.316;5.994;2022-08-24T06:29:59;21.40;99.90
49224;DHT22;35050;51.316;5.994;2022-08-24T06:32:25;21.50;99.90
49224;DHT22;35050;51.316;5.994;2022-08-24T06:34:55;21.60;99.90
49224;DHT22;35050;51.316;5.994;2022-08-24T06:37:21;21.70;99.90
49224;DHT22;35050;51.316;5.994;2022-08-24T06:39:52;21.80;99.90
49224;DHT22;35050;51.316;5.994;2022-08-24T06:42:18;22.20;99.90
49224;DHT22;35050;51.316;5.994;2022-08-24T06:44:44;22.70;99.90
49224;DHT22;35050;51.316;5.994;2022-08-24T06:47:09;22.50;99.90
49224;DHT22;35050;51.316;5.994;2022-08-24T06:49:35;22.40;99.90
49224;DHT22;35050;51.316;5.994;2022-08-24T06:52:04;22.40;99.90
49224;DHT22;35050;51.316;5.994;2022-08-24T06:54:32;22.50;99.90
49224;DHT22;35050;51.316;5.994;2022-08-24T06:56:58;22.50;99.90
49224;DHT22;35050;51.316;5.994;2022-08-24T06:59:25;22.60;99.90
49224;DHT22;35050;51.316;5.994;2022-08-24T07:01:55;22.70;99.90
49224;DHT22;35050;51.316;5.994;2022-08-24T07:04:24;22.90;99.90
49224;DHT22;35050;51.316;5.994;2022-08-24T07:06:51;22.90;99.90
49224;DHT22;35050;51.316;5.994;2022-08-24T07:09:18;23.00;99.90
49224;DHT22;35050;51.316;5.994;2022-08-24T07:11:44;23.10;99.90
49224;DHT22;35050;51.316;5.994;2022-08-24T07:14:09;23.30;99.90
49224;DHT22;35050;51.316;5.994;2022-08-24T07:16:35;23.40;99.90
49224;DHT22;35050;51.316;5.994;2022-08-24T07:19:02;23.50;99.90
49224;DHT22;35050;51.316;5.994;2022-08-24T07:21:29;23.60;99.90
49224;DHT22;35050;51.316;5.994;2022-08-24T07:23:58;23.70;99.90
49224;DHT22;35050;51.316;5.994;2022-08-24T07:26:26;23.80;99.90
49224;DHT22;35050;51.316;5.994;2022-08-24T07:28:55;23.90;99.90
49224;DHT22;35050;51.316;5.994;2022-08-24T07:31:26;24.10;99.90
49224;DHT22;35050;51.316;5.994;2022-08-24T07:33:51;24.00;99.90
49224;DHT22;35050;51.316;5.994;2022-08-24T07:36:17;24.10;99.90
49224;DHT22;35050;51.316;5.994;2022-08-24T07:38:44;24.30;99.90
49224;DHT22;35050;51.316;5.994;2022-08-24T07:41:11;24.40;99.90
49224;DHT22;35050;51.316;5.994;2022-08-24T07:43:39;24.50;99.90
49224;DHT22;35050;51.316;5.994;2022-08-24T07:46:05;24.70;99.90
49224;DHT22;35050;51.316;5.994;2022-08-24T07:48:31;24.90;99.90
49224;DHT22;35050;51.316;5.994;2022-08-24T07:50:57;24.80;99.90
49224;DHT22;35050;51.316;5.994;2022-08-24T07:53:24;24.80;99.90
49224;DHT22;35050;51.316;5.994;2022-08-24T07:55:54;25.10;99.90
49224;DHT22;35050;51.316;5.994;2022-08-24T07:58:20;25.30;99.90
49224;DHT22;35050;51.316;5.994;2022-08-24T08:00:47;25.40;99.90
49224;DHT22;35050;51.316;5.994;2022-08-24T08:03:13;25.40;99.90
49224;DHT22;35050;51.316;5.994;2022-08-24T08:05:39;25.60;99.90
49224;DHT22;35050;51.316;5.994;2022-08-24T08:08:07;25.80;99.90
49224;DHT22;35050;51.316;5.994;2022-08-24T08:10:33;26.00;99.90
49224;DHT22;35050;51.316;5.994;2022-08-24T08:13:05;25.70;99.90
49224;DHT22;35050;51.316;5.994;2022-08-24T08:15:31;26.00;99.90
49224;DHT22;35050;51.316;5.994;2022-08-24T08:17:57;26.30;99.90
49224;DHT22;35050;51.316;5.994;2022-08-24T08:20:23;26.50;99.90
49224;DHT22;35050;51.316;5.994;2022-08-24T08:22:49;26.70;99.90
49224;DHT22;35050;51.316;5.994;2022-08-24T08:25:33;26.80;99.90
49224;DHT22;35050;51.316;5.994;2022-08-24T08:28:04;27.00;99.90
49224;DHT22;35050;51.316;5.994;2022-08-24T08:30:30;27.00;99.90
49224;DHT22;35050;51.316;5.994;2022-08-24T08:32:56;27.10;99.90
49224;DHT22;35050;51.316;5.994;2022-08-24T08:35:22;27.30;99.90
49224;DHT22;35050;51.316;5.994;2022-08-24T08:37:48;27.20;99.90
49224;DHT22;35050;51.316;5.994;2022-08-24T08:46:05;27.80;99.90
49224;DHT22;35050;51.316;5.994;2022-08-24T08:48:54;27.90;99.70
49224;DHT22;35050;51.316;5.994;2022-08-24T08:54:42;28.30;99.80
49224;DHT22;35050;51.316;5.994;2022-08-24T09:02:55;28.80;98.50
49224;DHT22;35050;51.316;5.994;2022-08-24T09:11:07;29.30;96.90
49224;DHT22;35050;51.316;5.994;2022-08-24T09:13:47;29.20;96.10
49224;DHT22;35050;51.316;5.994;2022-08-24T09:16:43;29.20;96.60
49224;DHT22;35050;51.316;5.994;2022-08-24T09:19:45;29.40;96.50
49224;DHT22;35050;51.316;5.994;2022-08-24T09:22:17;29.40;95.70
49224;DHT22;35050;51.316;5.994;2022-08-24T10:04:00;31.70;92.30
49224;DHT22;35050;51.316;5.994;2022-08-24T10:06:33;31.60;91.50
49224;DHT22;35050;51.316;5.994;2022-08-24T10:12:43;31.40;90.40
49224;DHT22;35050;51.316;5.994;2022-08-24T10:15:22;32.30;90.70
49224;DHT22;35050;51.316;5.994;2022-08-24T10:24:14;32.80;89.30
49224;DHT22;35050;51.316;5.994;2022-08-24T10:35:07;33.20;86.40
49224;DHT22;35050;51.316;5.994;2022-08-24T10:37:46;33.60;86.80
49224;DHT22;35050;51.316;5.994;2022-08-24T10:41:36;33.70;86.80
49224;DHT22;35050;51.316;5.994;2022-08-24T10:46:50;33.00;85.80
49224;DHT22;35050;51.316;5.994;2022-08-24T10:54:32;32.60;85.30
49224;DHT22;35050;51.316;5.994;2022-08-24T10:57:08;32.40;86.50
49224;DHT22;35050;51.316;5.994;2022-08-24T11:00:03;31.90;87.10
49224;DHT22;35050;51.316;5.994;2022-08-24T11:02:35;31.70;87.20
49224;DHT22;35050;51.316;5.994;2022-08-24T11:05:07;31.20;88.10
49224;DHT22;35050;51.316;5.994;2022-08-24T11:07:34;30.90;88.20
49224;DHT22;35050;51.316;5.994;2022-08-24T11:10:05;31.20;89.40
49224;DHT22;35050;51.316;5.994;2022-08-24T11:17:35;31.80;88.10
49224;DHT22;35050;51.316;5.994;2022-08-24T11:20:03;32.10;86.70
49224;DHT22;35050;51.316;5.994;2022-08-24T11:26:17;32.70;87.20
49224;DHT22;35050;51.316;5.994;2022-08-24T11:29:11;33.00;83.40
49224;DHT22;35050;51.316;5.994;2022-08-24T11:31:41;33.50;84.00
49224;DHT22;35050;51.316;5.994;2022-08-24T11:34:13;34.20;82.30
49224;DHT22;35050;51.316;5.994;2022-08-24T11:36:39;33.80;79.90
49224;DHT22;35050;51.316;5.994;2022-08-24T11:39:16;34.20;80.80
49224;DHT22;35050;51.316;5.994;2022-08-24T11:41:48;34.00;80.70
49224;DHT22;35050;51.316;5.994;2022-08-24T11:47:34;35.00;80.40
49224;DHT22;35050;51.316;5.994;2022-08-24T11:56:33;35.30;76.20
49224;DHT22;35050;51.316;5.994;2022-08-24T12:01:58;35.40;77.20
49224;DHT22;35050;51.316;5.994;2022-08-24T12:07:18;35.50;75.70
49224;DHT22;35050;51.316;5.994;2022-08-24T12:09:58;35.70;76.60
49224;DHT22;35050;51.316;5.994;2022-08-24T12:17:43;36.20;73.70
49224;DHT22;35050;51.316;5.994;2022-08-24T12:23:43;36.30;72.60
49224;DHT22;35050;51.316;5.994;2022-08-24T12:26:21;36.60;72.10
49224;DHT22;35050;51.316;5.994;2022-08-24T12:28:52;36.80;73.50
49224;DHT22;35050;51.316;5.994;2022-08-24T12:31:28;36.40;72.80
49224;DHT22;35050;51.316;5.994;2022-08-24T12:34:00;36.70;71.80
49224;DHT22;35050;51.316;5.994;2022-08-24T12:36:40;37.00;72.10
49224;DHT22;35050;51.316;5.994;2022-08-24T12:39:13;37.10;71.40
49224;DHT22;35050;51.316;5.994;2022-08-24T12:42:21;37.30;71.00
49224;DHT22;35050;51.316;5.994;2022-08-24T12:44:58;37.00;70.10
49224;DHT22;35050;51.316;5.994;2022-08-24T12:50:00;37.10;70.30
49224;DHT22;35050;51.316;5.994;2022-08-24T12:58:08;37.40;67.60
49224;DHT22;35050;51.316;5.994;2022-08-24T13:00:45;37.60;68.10
49224;DHT22;35050;51.316;5.994;2022-08-24T13:03:47;37.30;68.20
49224;DHT22;35050;51.316;5.994;2022-08-24T13:06:26;37.20;69.40
49224;DHT22;35050;51.316;5.994;2022-08-24T13:10:05;36.90;70.10
49224;DHT22;35050;51.316;5.994;2022-08-24T13:11:50;37.10;69.10
49224;DHT22;35050;51.316;5.994;2022-08-24T13:14:22;36.20;68.50
49224;DHT22;35050;51.316;5.994;2022-08-24T13:29:38;37.20;67.20
49224;DHT22;35050;51.316;5.994;2022-08-24T13:32:06;37.60;67.50
49224;DHT22;35050;51.316;5.994;2022-08-24T13:34:42;37.70;66.00
49224;DHT22;35050;51.316;5.994;2022-08-24T13:37:17;37.70;66.20
49224;DHT22;35050;51.316;5.994;2022-08-24T13:40:04;37.90;66.00
49224;DHT22;35050;51.316;5.994;2022-08-24T13:48:01;38.10;65.80
49224;DHT22;35050;51.316;5.994;2022-08-24T14:02:09;37.50;66.60
49224;DHT22;35050;51.316;5.994;2022-08-24T14:07:29;37.60;65.70
49224;DHT22;35050;51.316;5.994;2022-08-24T14:19:33;37.50;64.20
49224;DHT22;35050;51.316;5.994;2022-08-24T14:24:44;37.70;65.50
49224;DHT22;35050;51.316;5.994;2022-08-24T14:27:34;37.80;65.10
49224;DHT22;35050;51.316;5.994;2022-08-24T14:36:28;37.70;63.80
49224;DHT22;35050;51.316;5.994;2022-08-24T14:38:37;37.70;64.40
49224;DHT22;35050;51.316;5.994;2022-08-24T14:41:34;37.80;64.70
49224;DHT22;35050;51.316;5.994;2022-08-24T14:44:09;37.60;64.60
49224;DHT22;35050;51.316;5.994;2022-08-24T14:46:59;37.70;63.30
49224;DHT22;35050;51.316;5.994;2022-08-24T14:49:45;37.80;64.20
49224;DHT22;35050;51.316;5.994;2022-08-24T15:00:16;38.00;63.60
49224;DHT22;35050;51.316;5.994;2022-08-24T15:08:06;37.30;64.70
49224;DHT22;35050;51.316;5.994;2022-08-24T15:10:55;37.50;64.90
49224;DHT22;35050;51.316;5.994;2022-08-24T15:14:00;37.30;64.70
49224;DHT22;35050;51.316;5.994;2022-08-24T15:16:44;36.90;63.20
49224;DHT22;35050;51.316;5.994;2022-08-24T15:19:30;37.00;63.90
49224;DHT22;35050;51.316;5.994;2022-08-24T15:22:10;37.30;63.30
49224;DHT22;35050;51.316;5.994;2022-08-24T15:24:44;37.10;63.90
49224;DHT22;35050;51.316;5.994;2022-08-24T15:27:47;36.60;63.50
49224;DHT22;35050;51.316;5.994;2022-08-24T15:30:28;37.40;63.30
49224;DHT22;35050;51.316;5.994;2022-08-24T15:33:12;37.50;63.80
49224;DHT22;35050;51.316;5.994;2022-08-24T15:35:47;37.20;64.00
49224;DHT22;35050;51.316;5.994;2022-08-24T15:38:32;37.50;64.70
49224;DHT22;35050;51.316;5.994;2022-08-24T15:41:07;37.60;63.10
49224;DHT22;35050;51.316;5.994;2022-08-24T15:43:44;37.40;62.80
49224;DHT22;35050;51.316;5.994;2022-08-24T15:46:12;37.50;64.20
49224;DHT22;35050;51.316;5.994;2022-08-24T15:48:40;37.60;62.80
49224;DHT22;35050;51.316;5.994;2022-08-24T15:51:07;36.90;63.70
49224;DHT22;35050;51.316;5.994;2022-08-24T15:53:40;37.10;64.00
49224;DHT22;35050;51.316;5.994;2022-08-24T15:56:28;37.10;63.90
49224;DHT22;35050;51.316;5.994;2022-08-24T15:59:06;37.00;62.90
49224;DHT22;35050;51.316;5.994;2022-08-24T16:01:32;36.80;63.10
49224;DHT22;35050;51.316;5.994;2022-08-24T16:04:41;36.80;64.20
49224;DHT22;35050;51.316;5.994;2022-08-24T16:07:12;36.90;63.90
49224;DHT22;35050;51.316;5.994;2022-08-24T16:09:41;36.60;64.20
49224;DHT22;35050;51.316;5.994;2022-08-24T16:12:21;36.60;63.60
49224;DHT22;35050;51.316;5.994;2022-08-24T16:14:52;36.30;63.10
49224;DHT22;35050;51.316;5.994;2022-08-24T16:17:32;36.50;63.30
49224;DHT22;35050;51.316;5.994;2022-08-24T16:20:11;36.20;64.40
49224;DHT22;35050;51.316;5.994;2022-08-24T16:22:47;36.30;65.20
49224;DHT22;35050;51.316;5.994;2022-08-24T16:27:58;35.70;63.80
49224;DHT22;35050;51.316;5.994;2022-08-24T16:30:43;35.60;63.70
49224;DHT22;35050;51.316;5.994;2022-08-24T16:33:10;35.50;64.50
49224;DHT22;35050;51.316;5.994;2022-08-24T16:35:59;35.40;65.30
49224;DHT22;35050;51.316;5.994;2022-08-24T16:38:28;35.10;64.70
49224;DHT22;35050;51.316;5.994;2022-08-24T16:41:02;35.20;65.50
49224;DHT22;35050;51.316;5.994;2022-08-24T16:43:28;35.10;66.40
49224;DHT22;35050;51.316;5.994;2022-08-24T16:45:55;34.90;65.70
49224;DHT22;35050;51.316;5.994;2022-08-24T16:48:21;35.10;65.90
49224;DHT22;35050;51.316;5.994;2022-08-24T16:50:46;35.10;65.60
49224;DHT22;35050;51.316;5.994;2022-08-24T16:53:12;35.20;65.70
49224;DHT22;35050;51.316;5.994;2022-08-24T16:55:38;35.00;65.80
49224;DHT22;35050;51.316;5.994;2022-08-24T16:58:04;34.80;65.60
49224;DHT22;35050;51.316;5.994;2022-08-24T17:00:30;35.00;65.70
49224;DHT22;35050;51.316;5.994;2022-08-24T17:02:56;35.00;65.00
49224;DHT22;35050;51.316;5.994;2022-08-24T17:05:22;35.00;66.30
49224;DHT22;35050;51.316;5.994;2022-08-24T17:07:48;34.60;66.60
49224;DHT22;35050;51.316;5.994;2022-08-24T17:10:17;34.30;66.00
49224;DHT22;35050;51.316;5.994;2022-08-24T17:12:43;34.50;65.80
49224;DHT22;35050;51.316;5.994;2022-08-24T17:15:10;34.60;64.00
49224;DHT22;35050;51.316;5.994;2022-08-24T17:17:40;34.50;65.70
49224;DHT22;35050;51.316;5.994;2022-08-24T17:20:09;34.50;66.50
49224;DHT22;35050;51.316;5.994;2022-08-24T17:22:36;34.40;67.80
49224;DHT22;35050;51.316;5.994;2022-08-24T17:25:02;34.30;67.10
49224;DHT22;35050;51.316;5.994;2022-08-24T17:27:30;34.30;67.30
49224;DHT22;35050;51.316;5.994;2022-08-24T17:29:58;34.30;67.60
49224;DHT22;35050;51.316;5.994;2022-08-24T17:32:24;34.20;68.00
49224;DHT22;35050;51.316;5.994;2022-08-24T17:34:50;33.90;66.80
49224;DHT22;35050;51.316;5.994;2022-08-24T17:37:16;34.00;66.70
49224;DHT22;35050;51.316;5.994;2022-08-24T17:39:42;34.10;68.30
49224;DHT22;35050;51.316;5.994;2022-08-24T17:42:08;34.10;68.40
49224;DHT22;35050;51.316;5.994;2022-08-24T17:44:33;33.90;69.00
49224;DHT22;35050;51.316;5.994;2022-08-24T17:47:02;33.70;68.10
49224;DHT22;35050;51.316;5.994;2022-08-24T17:49:29;33.60;69.50
49224;DHT22;35050;51.316;5.994;2022-08-24T17:51:57;33.50;69.90
49224;DHT22;35050;51.316;5.994;2022-08-24T17:54:23;33.50;70.20
49224;DHT22;35050;51.316;5.994;2022-08-24T17:56:52;33.50;70.50
49224;DHT22;35050;51.316;5.994;2022-08-24T17:59:28;33.40;69.70
49224;DHT22;35050;51.316;5.994;2022-08-24T18:02:03;33.30;69.70
49224;DHT22;35050;51.316;5.994;2022-08-24T18:04:31;33.20;70.00
49224;DHT22;35050;51.316;5.994;2022-08-24T18:07:01;33.10;70.30
49224;DHT22;35050;51.316;5.994;2022-08-24T18:09:33;33.00;70.20
49224;DHT22;35050;51.316;5.994;2022-08-24T18:12:00;32.90;70.30
49224;DHT22;35050;51.316;5.994;2022-08-24T18:14:27;32.80;70.40
49224;DHT22;35050;51.316;5.994;2022-08-24T18:16:54;32.70;71.30
49224;DHT22;35050;51.316;5.994;2022-08-24T18:19:21;32.70;71.90
49224;DHT22;35050;51.316;5.994;2022-08-24T18:21:47;32.60;72.00
49224;DHT22;35050;51.316;5.994;2022-08-24T18:24:13;32.40;72.50
49224;DHT22;35050;51.316;5.994;2022-08-24T18:26:39;32.30;72.80
49224;DHT22;35050;51.316;5.994;2022-08-24T18:29:12;32.20;73.00
49224;DHT22;35050;51.316;5.994;2022-08-24T18:31:39;32.10;72.70
49224;DHT22;35050;51.316;5.994;2022-08-24T18:34:04;32.00;74.50
49224;DHT22;35050;51.316;5.994;2022-08-24T18:36:30;32.00;75.30
49224;DHT22;35050;51.316;5.994;2022-08-24T18:38:56;31.80;76.20
49224;DHT22;35050;51.316;5.994;2022-08-24T18:41:24;31.70;75.60
49224;DHT22;35050;51.316;5.994;2022-08-24T18:43:52;31.70;75.40
49224;DHT22;35050;51.316;5.994;2022-08-24T18:46:19;31.50;76.50
49224;DHT22;35050;51.316;5.994;2022-08-24T18:48:45;31.50;76.30
49224;DHT22;35050;51.316;5.994;2022-08-24T18:51:14;31.40;76.40
49224;DHT22;35050;51.316;5.994;2022-08-24T18:53:41;31.30;77.30
49224;DHT22;35050;51.316;5.994;2022-08-24T18:56:07;31.20;75.50
49224;DHT22;35050;51.316;5.994;2022-08-24T18:58:34;31.20;75.60
49224;DHT22;35050;51.316;5.994;2022-08-24T19:01:00;31.20;75.30
49224;DHT22;35050;51.316;5.994;2022-08-24T19:03:26;31.20;75.20
49224;DHT22;35050;51.316;5.994;2022-08-24T19:05:52;31.10;76.20